Time;durP1;ratioP1;P1;durP2;ratioP2;P2;SDS_P1;SDS_P2;PMS_P1;PMS_P2;Temp;Humidity;BMP_temperature;BMP_pressure;BME280_temperature;BME280_humidity;BME280_pressure;Samples;Min_cycle;Max_cycle;Signal;HPM_P1;HPM_P2
2020/12/21 00:01:42;;;;;;;2.00;1.73;;;9.50;1.00;;;;;;5086929;28;20487;-74
2020/12/21 00:04:09;;;;;;;1.83;1.67;;;9.30;1.00;;;;;;5085176;28;20473;-75
2020/12/21 00:06:37;;;;;;;1.83;1.47;;;9.20;1.00;;;;;;5089743;28;20521;-75
2020/12/21 00:09:05;;;;;;;1.50;1.40;;;9.20;1.00;;;;;;5069697;28;20496;-75
2020/12/21 00:11:37;;;;;;;2.37;1.73;;;9.30;1.00;;;;;;5083780;28;20471;-75
2020/12/21 00:14:05;;;;;;;1.67;1.57;;;9.30;1.00;;;;;;5080241;28;20468;-77
2020/12/21 00:16:37;;;;;;;1.60;1.20;;;9.20;1.00;;;;;;5083495;28;20498;-75
2020/12/21 00:19:06;;;;;;;1.40;1.30;;;9.10;1.00;;;;;;5074094;28;20483;-78
2020/12/21 00:21:34;;;;;;;1.90;1.70;;;9.10;1.00;;;;;;5060399;28;20464;-76
2020/12/21 00:24:01;;;;;;;2.40;1.53;;;9.10;1.00;;;;;;5090019;28;20467;-74
2020/12/21 00:26:29;;;;;;;1.67;1.57;;;9.20;1.00;;;;;;5090871;28;20521;-76
2020/12/21 00:28:56;;;;;;;2.37;1.80;;;9.30;1.00;;;;;;5078375;28;20482;-76
2020/12/21 00:31:25;;;;;;;2.20;1.63;;;9.30;1.00;;;;;;5086573;28;20534;-75
2020/12/21 00:33:53;;;;;;;2.83;1.60;;;9.30;1.00;;;;;;5088500;28;20526;-76
2020/12/21 00:36:20;;;;;;;1.90;1.80;;;9.30;1.00;;;;;;5073676;28;20475;-75
2020/12/21 00:38:48;;;;;;;5.53;2.33;;;9.30;1.00;;;;;;5068266;28;20505;-76
2020/12/21 00:41:16;;;;;;;3.40;2.50;;;9.40;1.00;;;;;;5085418;28;21011;-75
2020/12/21 00:43:46;;;;;;;2.60;2.00;;;9.50;1.00;;;;;;5092555;28;20522;-76
2020/12/21 00:46:14;;;;;;;3.20;2.43;;;9.50;1.00;;;;;;5092792;28;20457;-75
2020/12/21 00:48:42;;;;;;;2.40;2.07;;;9.50;1.00;;;;;;5090970;28;20479;-76
2020/12/21 00:51:09;;;;;;;3.20;2.50;;;9.50;1.00;;;;;;5070208;28;21017;-75
2020/12/21 00:53:37;;;;;;;3.50;2.47;;;9.50;1.00;;;;;;5062987;28;20471;-75
2020/12/21 00:56:05;;;;;;;3.80;3.50;;;9.40;1.00;;;;;;5091602;28;21294;-76
2020/12/21 00:58:34;;;;;;;3.73;2.90;;;9.30;1.00;;;;;;5086913;28;21027;-76
2020/12/21 01:01:06;;;;;;;4.33;2.60;;;9.30;1.00;;;;;;5068990;28;20489;-78
2020/12/21 01:03:50;;;;;;;2.97;2.33;;;9.30;1.00;;;;;;5089753;28;20452;-76
2020/12/21 01:06:17;;;;;;;2.70;2.07;;;9.40;1.00;;;;;;5093917;28;20469;-76
2020/12/21 01:08:45;;;;;;;1.90;1.70;;;9.20;1.00;;;;;;5084983;28;20639;-78
2020/12/21 01:11:14;;;;;;;2.10;1.77;;;9.00;1.00;;;;;;5084630;28;20561;-79
2020/12/21 01:13:43;;;;;;;1.60;1.43;;;8.90;1.00;;;;;;5080115;28;20460;-77
2020/12/21 01:16:11;;;;;;;1.70;1.30;;;8.90;1.00;;;;;;5079837;28;21104;-78
2020/12/21 01:18:38;;;;;;;1.87;1.40;;;8.80;1.00;;;;;;5090697;28;20483;-76
2020/12/21 01:21:06;;;;;;;1.57;1.30;;;8.80;1.00;;;;;;5080622;28;20474;-78
2020/12/21 01:23:33;;;;;;;1.80;1.43;;;8.90;1.00;;;;;;5083858;28;20875;-77
2020/12/21 01:26:00;;;;;;;1.40;1.30;;;8.80;1.00;;;;;;5098634;28;20560;-77
2020/12/21 01:28:29;;;;;;;2.53;1.60;;;8.80;1.00;;;;;;5070653;28;20860;-79
2020/12/21 01:30:56;;;;;;;2.30;2.03;;;8.70;1.00;;;;;;5090710;28;20465;-78
2020/12/21 01:33:24;;;;;;;2.70;2.00;;;8.70;1.00;;;;;;5090579;28;20602;-77
2020/12/21 01:35:51;;;;;;;2.20;1.50;;;8.70;1.00;;;;;;5093211;28;20991;-77
2020/12/21 01:38:18;;;;;;;2.00;1.70;;;8.70;1.00;;;;;;5093406;28;20503;-76
2020/12/21 01:40:45;;;;;;;3.40;1.77;;;8.80;1.00;;;;;;5086233;28;21264;-77
2020/12/21 01:43:12;;;;;;;3.47;2.60;;;8.70;1.00;;;;;;5080004;28;20469;-80
2020/12/21 01:45:39;;;;;;;4.77;3.50;;;8.70;1.00;;;;;;5088766;28;20474;-79
2020/12/21 01:48:06;;;;;;;4.53;2.97;;;8.70;1.00;;;;;;5092634;28;20493;-79
2020/12/21 01:50:34;;;;;;;2.87;2.13;;;8.80;1.00;;;;;;5069348;28;20819;-79
2020/12/21 01:53:02;;;;;;;2.53;2.33;;;8.80;1.00;;;;;;5058739;28;20524;-80
2020/12/21 01:55:34;;;;;;;2.47;1.73;;;8.90;1.00;;;;;;5070908;28;20453;-78
2020/12/21 01:58:01;;;;;;;2.03;1.90;;;8.70;1.00;;;;;;5087516;28;21020;-80
2020/12/21 02:00:29;;;;;;;4.23;2.20;;;8.50;1.00;;;;;;5088115;28;20684;-77
2020/12/21 02:02:57;;;;;;;1.70;1.60;;;8.40;1.00;;;;;;5088425;28;20479;-79
2020/12/21 02:05:24;;;;;;;2.00;1.90;;;8.40;1.00;;;;;;5066662;28;20501;-80
2020/12/21 02:07:52;;;;;;;3.93;1.73;;;8.50;1.00;;;;;;5089193;28;20463;-79
2020/12/21 02:10:20;;;;;;;3.00;2.17;;;8.60;1.00;;;;;;5081355;28;20573;-78
2020/12/21 02:12:48;;;;;;;2.13;1.90;;;8.70;1.00;;;;;;5088029;28;20465;-78
2020/12/21 02:15:15;;;;;;;2.40;2.00;;;8.70;1.00;;;;;;5069264;28;20475;-78
2020/12/21 02:17:42;;;;;;;3.40;2.10;;;8.70;1.00;;;;;;5080218;28;20540;-77
2020/12/21 02:20:09;;;;;;;1.90;1.70;;;8.70;1.00;;;;;;5079807;28;20518;-78
2020/12/21 02:22:37;;;;;;;1.97;1.87;;;8.80;1.00;;;;;;5086467;28;21055;-77
2020/12/21 02:25:04;;;;;;;2.23;2.13;;;8.70;1.00;;;;;;5089773;28;20563;-78
2020/12/21 02:27:31;;;;;;;1.90;1.70;;;8.80;1.00;;;;;;5088227;28;20464;-77
2020/12/21 02:29:58;;;;;;;2.37;1.90;;;8.70;1.00;;;;;;5061246;28;20477;-79
2020/12/21 02:32:26;;;;;;;2.10;1.83;;;8.40;1.00;;;;;;5092590;28;20447;-77
2020/12/21 02:34:53;;;;;;;2.53;1.60;;;8.40;1.00;;;;;;5063594;28;20824;-79
2020/12/21 02:37:20;;;;;;;1.73;1.63;;;8.30;1.00;;;;;;5087626;28;21047;-78
2020/12/21 02:39:48;;;;;;;2.90;2.33;;;8.30;1.00;;;;;;5088273;28;20546;-79
2020/12/21 02:42:15;;;;;;;2.90;2.70;;;8.30;1.00;;;;;;5089769;28;20470;-79
2020/12/21 02:44:42;;;;;;;2.17;2.07;;;8.40;1.00;;;;;;5081022;28;20960;-79
2020/12/21 02:47:09;;;;;;;3.00;2.17;;;8.30;1.00;;;;;;5086982;28;20984;-79
2020/12/21 02:49:36;;;;;;;2.10;1.90;;;8.20;1.00;;;;;;5085605;28;20493;-78
2020/12/21 02:52:04;;;;;;;3.50;2.00;;;8.20;1.00;;;;;;5095137;28;20503;-77
2020/12/21 02:54:31;;;;;;;2.17;2.00;;;8.10;1.00;;;;;;5082652;28;20468;-79
2020/12/21 02:56:59;;;;;;;2.33;2.13;;;8.00;1.00;;;;;;5083838;28;20483;-79
2020/12/21 02:59:26;;;;;;;2.40;2.20;;;7.80;1.00;;;;;;5090997;28;20981;-79
2020/12/21 03:01:54;;;;;;;2.13;1.63;;;7.80;1.00;;;;;;5065852;28;20801;-78
2020/12/21 03:04:21;;;;;;;3.40;1.90;;;7.80;1.00;;;;;;5081233;28;20470;-77
2020/12/21 03:06:48;;;;;;;3.53;1.80;;;7.80;1.00;;;;;;5066430;28;20463;-78
2020/12/21 03:09:15;;;;;;;3.50;1.97;;;7.70;1.00;;;;;;5085393;28;21033;-79
2020/12/21 03:11:47;;;;;;;5.10;2.10;;;7.70;1.00;;;;;;5085245;28;20450;-79
2020/12/21 03:14:15;;;;;;;2.10;1.90;;;7.70;1.00;;;;;;5080394;28;20558;-78
2020/12/21 03:16:42;;;;;;;3.63;2.63;;;7.70;1.00;;;;;;5065043;28;20477;-78
2020/12/21 03:19:09;;;;;;;2.50;2.00;;;7.70;1.00;;;;;;5082979;28;20483;-79
2020/12/21 03:21:36;;;;;;;5.77;3.97;;;7.80;1.00;;;;;;5089985;28;20978;-78
2020/12/21 03:24:04;;;;;;;1.90;1.57;;;7.70;1.00;;;;;;5056625;28;20496;-78
2020/12/21 03:26:31;;;;;;;2.00;1.60;;;7.70;1.00;;;;;;5084400;28;20464;-78
2020/12/21 03:28:58;;;;;;;3.23;1.50;;;7.70;1.00;;;;;;5085966;28;20489;-79
2020/12/21 03:31:26;;;;;;;3.20;1.70;;;7.50;1.00;;;;;;5088464;28;20975;-78
2020/12/21 03:33:53;;;;;;;2.00;1.90;;;7.50;1.00;;;;;;5083623;28;20469;-79
2020/12/21 03:36:21;;;;;;;2.53;1.73;;;7.40;1.00;;;;;;5069314;28;20500;-78
2020/12/21 03:38:48;;;;;;;1.87;1.70;;;7.50;1.00;;;;;;5085330;28;20488;-79
2020/12/21 03:41:15;;;;;;;6.57;2.20;;;7.60;1.00;;;;;;5081472;28;20463;-78
2020/12/21 03:43:43;;;;;;;2.10;2.00;;;7.80;1.00;;;;;;5081291;28;20882;-77
2020/12/21 03:46:10;;;;;;;2.60;2.13;;;7.90;1.00;;;;;;5062426;28;20479;-78
2020/12/21 03:48:38;;;;;;;2.20;1.57;;;8.00;1.00;;;;;;5080723;28;20523;-78
2020/12/21 03:51:05;;;;;;;2.50;1.70;;;8.00;1.00;;;;;;5088072;28;20941;-78
2020/12/21 03:53:32;;;;;;;2.27;1.90;;;8.00;1.00;;;;;;5090506;28;20468;-77
2020/12/21 03:55:59;;;;;;;2.23;1.77;;;8.10;1.00;;;;;;5090444;28;20477;-79
2020/12/21 03:58:26;;;;;;;3.00;1.97;;;8.10;1.00;;;;;;5081043;28;20549;-77
2020/12/21 04:00:53;;;;;;;3.20;2.17;;;8.10;1.00;;;;;;5084317;28;20520;-77
2020/12/21 04:03:20;;;;;;;2.90;1.83;;;8.10;1.00;;;;;;5084046;28;20543;-78
2020/12/21 04:05:49;;;;;;;4.17;1.60;;;8.00;1.00;;;;;;5092219;28;20453;-79
2020/12/21 04:08:17;;;;;;;5.20;2.40;;;7.80;1.00;;;;;;5084737;28;20582;-77
2020/12/21 04:10:46;;;;;;;3.33;2.27;;;7.70;1.00;;;;;;5086535;28;21095;-78
2020/12/21 04:13:13;;;;;;;2.13;1.80;;;7.60;1.00;;;;;;5064324;28;20461;-77
2020/12/21 04:15:43;;;;;;;2.83;2.00;;;7.50;1.00;;;;;;5059700;28;20542;-78
2020/12/21 04:18:10;;;;;;;2.10;1.90;;;7.70;1.00;;;;;;5065520;28;20496;-78
2020/12/21 04:20:37;;;;;;;2.63;1.97;;;7.70;1.00;;;;;;5082950;28;20498;-77
2020/12/21 04:23:05;;;;;;;2.30;1.70;;;7.60;1.00;;;;;;5090198;28;20735;-78
2020/12/21 04:25:32;;;;;;;2.90;1.90;;;7.70;1.00;;;;;;5086139;28;20493;-77
2020/12/21 04:27:59;;;;;;;3.17;2.00;;;7.80;1.00;;;;;;5083283;28;20485;-79
2020/12/21 04:30:27;;;;;;;3.10;2.10;;;7.90;1.00;;;;;;5089687;28;20511;-78
2020/12/21 04:32:54;;;;;;;2.30;2.10;;;7.90;1.00;;;;;;5084399;28;20553;-76
2020/12/21 04:35:21;;;;;;;2.53;1.60;;;7.90;1.00;;;;;;5062443;28;20464;-77
2020/12/21 04:37:50;;;;;;;2.43;2.20;;;7.90;1.00;;;;;;5065389;28;20546;-79
2020/12/21 04:40:18;;;;;;;2.40;2.00;;;7.80;99.90;;;;;;5082838;28;20536;-75
2020/12/21 04:42:47;;;;;;;3.27;1.97;;;7.80;99.90;;;;;;5063538;28;20779;-77
2020/12/21 04:45:15;;;;;;;3.10;2.40;;;7.70;99.90;;;;;;5086574;28;20544;-76
2020/12/21 04:47:43;;;;;;;2.90;1.80;;;7.70;1.00;;;;;;5082529;28;20467;-76
2020/12/21 04:50:11;;;;;;;3.37;2.20;;;7.60;99.90;;;;;;5080794;28;20471;-78
2020/12/21 04:52:48;;;;;;;2.80;2.00;;;7.60;1.00;;;;;;5091497;28;20476;-78
2020/12/21 04:55:18;;;;;;;3.43;2.20;;;7.70;1.00;;;;;;5072107;28;20471;-78
2020/12/21 04:57:55;;;;;;;2.50;2.30;;;7.60;1.00;;;;;;5086894;28;20496;-77
2020/12/21 05:00:23;;;;;;;5.50;1.87;;;7.50;1.00;;;;;;5080291;28;20465;-78
2020/12/21 05:02:50;;;;;;;2.23;2.03;;;7.40;1.00;;;;;;5091837;28;20457;-77
2020/12/21 05:05:28;;;;;;;2.93;2.63;;;7.40;1.00;;;;;;5084129;28;20466;-77
2020/12/21 05:07:56;;;;;;;2.80;2.13;;;7.40;1.00;;;;;;5091171;28;20525;-77
2020/12/21 05:10:26;;;;;;;3.23;2.23;;;7.40;1.00;;;;;;5080874;28;20888;-78
2020/12/21 05:13:00;;;;;;;3.30;2.80;;;7.50;1.00;;;;;;5076576;28;20469;-77
2020/12/21 05:15:29;;;;;;;2.63;2.33;;;7.60;1.00;;;;;;5083809;28;20465;-78
2020/12/21 05:18:07;;;;;;;2.10;1.87;;;7.70;1.00;;;;;;5091918;28;20514;-78
2020/12/21 05:20:35;;;;;;;2.30;2.10;;;7.70;1.00;;;;;;5085824;28;20524;-77
2020/12/21 05:23:03;;;;;;;3.40;2.30;;;7.70;1.00;;;;;;5091930;28;20496;-78
2020/12/21 05:25:31;;;;;;;3.30;2.53;;;7.80;1.00;;;;;;5083091;28;20466;-76
2020/12/21 05:28:10;;;;;;;2.57;2.37;;;7.80;1.00;;;;;;5091729;28;20487;-76
2020/12/21 05:30:50;;;;;;;5.20;2.60;;;8.00;1.00;;;;;;5065952;28;20479;-77
2020/12/21 05:33:17;;;;;;;4.50;2.57;;;8.10;1.00;;;;;;5084110;28;20834;-77
2020/12/21 05:35:44;;;;;;;3.90;2.10;;;8.20;1.00;;;;;;5092675;28;20462;-77
2020/12/21 05:38:26;;;;;;;2.13;1.93;;;8.20;1.00;;;;;;5088255;28;20495;-74
2020/12/21 05:41:06;;;;;;;2.80;1.93;;;8.30;1.00;;;;;;5086378;28;20446;-73
2020/12/21 05:43:36;;;;;;;2.13;1.83;;;8.20;1.00;;;;;;5080235;28;20469;-72
2020/12/21 05:46:12;;;;;;;3.07;2.30;;;8.10;1.00;;;;;;5092487;28;20492;-74
2020/12/21 05:48:41;;;;;;;3.07;1.97;;;8.10;1.00;;;;;;5080962;28;20566;-74
2020/12/21 05:51:10;;;;;;;6.80;2.43;;;8.10;1.00;;;;;;5073850;28;20474;-73
2020/12/21 05:53:40;;;;;;;2.77;2.50;;;8.10;1.00;;;;;;5084757;28;21084;-75
2020/12/21 05:56:09;;;;;;;2.47;2.27;;;8.20;1.00;;;;;;5096417;28;20790;-71
2020/12/21 05:58:38;;;;;;;2.67;2.10;;;8.20;1.00;;;;;;5063390;28;20493;-73
2020/12/21 06:01:06;;;;;;;3.20;2.23;;;8.30;1.00;;;;;;5088462;28;20479;-71
2020/12/21 06:03:41;;;;;;;3.77;2.60;;;8.20;1.00;;;;;;5093299;28;20477;-71
2020/12/21 06:06:12;;;;;;;3.73;3.20;;;8.20;99.90;;;;;;5064943;28;20467;-72
2020/12/21 06:08:40;;;;;;;8.40;4.43;;;8.20;99.90;;;;;;5087706;28;20511;-72
2020/12/21 06:11:16;;;;;;;3.93;2.73;;;8.20;99.90;;;;;;5084478;28;20468;-74
2020/12/21 06:13:48;;;;;;;3.93;3.10;;;8.10;99.90;;;;;;5078421;28;20561;-74
2020/12/21 06:16:17;;;;;;;3.17;2.50;;;8.10;99.90;;;;;;5083171;28;20495;-74
2020/12/21 06:18:59;;;;;;;3.30;3.00;;;8.10;99.90;;;;;;5079933;28;20502;-74
2020/12/21 06:21:28;;;;;;;2.90;2.60;;;8.10;99.90;;;;;;5086887;28;21213;-74
2020/12/21 06:23:55;;;;;;;4.20;3.10;;;8.10;99.90;;;;;;5090217;28;20458;-74
2020/12/21 06:26:34;;;;;;;4.30;3.13;;;8.10;99.90;;;;;;5083362;28;20889;-74
2020/12/21 06:29:03;;;;;;;4.97;3.67;;;8.10;99.90;;;;;;5085942;28;20526;-74
2020/12/21 06:31:39;;;;;;;4.30;3.67;;;8.10;99.90;;;;;;5097392;28;20466;-74
2020/12/21 06:34:07;;;;;;;3.60;3.13;;;8.00;99.90;;;;;;5088682;28;21127;-72
2020/12/21 06:36:34;;;;;;;4.33;3.60;;;8.00;1.00;;;;;;5065226;28;20496;-73
2020/12/21 06:39:02;;;;;;;3.57;3.27;;;8.00;1.00;;;;;;5082628;28;20518;-74
2020/12/21 06:41:30;;;;;;;4.33;3.70;;;8.00;1.00;;;;;;5088135;28;20557;-73
2020/12/21 06:44:06;;;;;;;4.23;3.80;;;8.00;1.00;;;;;;5095155;28;20476;-71
2020/12/21 06:46:34;;;;;;;5.27;3.23;;;8.00;1.00;;;;;;5083562;28;20469;-73
2020/12/21 06:49:10;;;;;;;3.63;3.33;;;8.00;1.00;;;;;;5080211;28;20475;-72
2020/12/21 06:51:43;;;;;;;4.50;2.50;;;7.90;99.90;;;;;;5089639;28;20547;-73
2020/12/21 06:54:11;;;;;;;5.10;3.17;;;7.90;99.90;;;;;;5081051;28;20474;-72
2020/12/21 06:56:40;;;;;;;3.70;2.70;;;7.90;99.90;;;;;;5076907;28;20614;-74
2020/12/21 06:59:12;;;;;;;3.60;2.63;;;7.90;99.90;;;;;;5085203;28;20607;-72
2020/12/21 07:01:41;;;;;;;3.50;2.50;;;7.90;99.90;;;;;;5088772;28;20453;-73
2020/12/21 07:04:13;;;;;;;4.83;2.60;;;7.80;99.90;;;;;;5081174;28;20465;-76
2020/12/21 07:06:41;;;;;;;2.30;2.10;;;7.70;99.90;;;;;;5079109;28;20467;-76
2020/12/21 07:09:09;;;;;;;2.87;1.97;;;7.60;99.90;;;;;;5080538;28;20597;-75
2020/12/21 07:11:38;;;;;;;2.93;2.63;;;7.40;99.90;;;;;;5075754;28;20497;-75
2020/12/21 07:14:05;;;;;;;2.77;2.50;;;7.40;1.00;;;;;;5081443;28;20502;-73
2020/12/21 07:16:34;;;;;;;2.37;2.17;;;7.40;99.90;;;;;;5067508;28;20527;-73
2020/12/21 07:19:01;;;;;;;3.90;2.67;;;7.40;1.00;;;;;;5081632;28;20536;-73
2020/12/21 07:21:30;;;;;;;3.77;3.07;;;7.40;1.00;;;;;;5057455;28;20457;-74
2020/12/21 07:23:58;;;;;;;4.70;3.60;;;7.40;1.00;;;;;;5088348;28;20507;-73
2020/12/21 07:26:26;;;;;;;4.20;3.70;;;7.40;1.00;;;;;;5083190;28;20495;-77
2020/12/21 07:28:53;;;;;;;3.53;3.27;;;7.30;1.00;;;;;;5080376;28;20485;-73
2020/12/21 07:31:22;;;;;;;4.40;3.23;;;7.30;1.00;;;;;;5082263;28;20483;-75
2020/12/21 07:33:54;;;;;;;4.33;3.33;;;7.40;1.00;;;;;;5081464;28;20481;-74
2020/12/21 07:36:24;;;;;;;6.40;4.27;;;7.40;1.00;;;;;;5083697;28;21477;-73
2020/12/21 07:38:51;;;;;;;5.40;3.60;;;7.40;1.00;;;;;;5083614;28;20608;-73
2020/12/21 07:41:23;;;;;;;2.87;2.47;;;7.60;1.00;;;;;;5084700;28;20473;-71
2020/12/21 07:44:02;;;;;;;4.37;3.63;;;7.70;99.90;;;;;;5079860;28;20469;-74
2020/12/21 07:46:39;;;;;;;4.47;3.67;;;7.70;99.90;;;;;;5082778;28;20456;-73
2020/12/21 07:49:09;;;;;;;5.37;3.87;;;7.70;99.90;;;;;;5083584;28;21004;-72
2020/12/21 07:51:39;;;;;;;3.90;3.60;;;7.70;99.90;;;;;;5088552;28;20458;-74
2020/12/21 07:54:07;;;;;;;4.10;3.70;;;7.80;99.90;;;;;;5064396;28;20470;-72
2020/12/21 07:56:34;;;;;;;5.47;4.18;;;7.80;99.90;;;;;;5077530;28;20500;-72
2020/12/21 07:59:17;;;;;;;3.80;3.50;;;7.90;99.90;;;;;;5060667;28;20262;-72
2020/12/21 08:01:46;;;;;;;6.13;3.83;;;7.90;3.40;;;;;;5067360;28;20496;-73
2020/12/21 08:04:18;;;;;;;5.67;4.97;;;7.90;1.00;;;;;;5090054;28;20461;-72
2020/12/21 08:06:46;;;;;;;4.73;4.00;;;8.00;1.00;;;;;;5089804;28;20524;-73
2020/12/21 08:09:14;;;;;;;5.57;4.10;;;8.00;1.00;;;;;;5086192;28;20480;-73
2020/12/21 08:11:43;;;;;;;4.40;4.00;;;8.00;1.00;;;;;;5086872;28;20468;-72
2020/12/21 08:14:15;;;;;;;7.20;5.20;;;8.00;1.00;;;;;;5086821;28;20475;-72
2020/12/21 08:16:43;;;;;;;5.27;4.27;;;8.00;99.90;;;;;;5084252;28;20490;-74
2020/12/21 08:19:13;;;;;;;4.17;3.03;;;8.00;1.00;;;;;;5076377;28;20528;-72
2020/12/21 08:21:41;;;;;;;4.87;4.00;;;7.90;1.00;;;;;;5078177;28;20463;-73
2020/12/21 08:24:10;;;;;;;4.13;3.37;;;8.00;1.00;;;;;;5083085;28;20471;-73
2020/12/21 08:26:38;;;;;;;4.40;3.53;;;8.00;99.90;;;;;;5085167;28;20463;-79
2020/12/21 08:29:05;;;;;;;9.90;3.13;;;8.00;99.90;;;;;;5081427;28;21057;-73
2020/12/21 08:31:42;;;;;;;3.10;2.90;;;8.00;99.90;;;;;;5089113;28;20475;-73
2020/12/21 08:34:10;;;;;;;2.40;2.20;;;8.00;99.90;;;;;;5066541;28;21192;-72
2020/12/21 08:36:39;;;;;;;3.00;2.70;;;7.80;99.90;;;;;;5081327;28;20473;-72
2020/12/21 08:39:12;;;;;;;2.83;2.43;;;7.70;99.90;;;;;;5055689;28;20544;-74
2020/12/21 08:41:42;;;;;;;7.60;3.60;;;7.80;1.00;;;;;;5085564;28;20467;-70
2020/12/21 08:44:14;;;;;;;4.77;2.70;;;7.70;1.00;;;;;;5076478;28;20539;-72
2020/12/21 08:46:46;;;;;;;6.27;3.00;;;7.60;1.00;;;;;;5084438;28;20552;-74
2020/12/21 08:49:13;;;;;;;4.80;3.60;;;7.50;92.60;;;;;;5071542;28;20493;-73
2020/12/21 08:51:40;;;;;;;3.53;3.20;;;7.40;99.90;;;;;;5084015;28;20517;-75
2020/12/21 08:54:08;;;;;;;3.50;2.43;;;7.40;99.90;;;;;;5085245;28;20557;-72
2020/12/21 08:56:36;;;;;;;4.87;3.10;;;7.40;99.90;;;;;;5071293;28;20436;-71
2020/12/21 08:59:03;;;;;;;3.40;3.10;;;7.40;99.90;;;;;;5093009;28;20503;-72
2020/12/21 09:01:30;;;;;;;3.60;2.70;;;7.50;99.90;;;;;;5070942;28;20481;-73
2020/12/21 09:03:57;;;;;;;3.90;2.80;;;7.70;99.90;;;;;;5087315;28;20476;-73
2020/12/21 09:06:25;;;;;;;2.67;2.50;;;7.80;25.50;;;;;;5088987;28;20490;-76
2020/12/21 09:08:56;;;;;;;4.13;2.93;;;7.80;1.00;;;;;;5087851;28;20577;-72
2020/12/21 09:11:25;;;;;;;3.63;2.83;;;7.80;1.00;;;;;;5085266;28;20489;-73
2020/12/21 09:13:53;;;;;;;4.13;3.73;;;7.80;1.00;;;;;;5090281;28;20473;-72
2020/12/21 09:16:23;;;;;;;3.13;2.57;;;8.00;1.00;;;;;;5094675;28;20491;-75
2020/12/21 09:18:52;;;;;;;4.07;3.67;;;8.00;99.90;;;;;;5068553;28;20851;-75
2020/12/21 09:21:20;;;;;;;3.80;2.93;;;8.10;99.90;;;;;;5077870;28;21059;-72
2020/12/21 09:23:48;;;;;;;3.37;3.07;;;8.30;1.00;;;;;;5068582;28;20549;-74
2020/12/21 09:26:16;;;;;;;3.90;3.60;;;8.40;1.00;;;;;;5085417;28;20525;-71
2020/12/21 09:28:44;;;;;;;7.40;3.80;;;8.40;1.00;;;;;;5095253;28;20506;-71
2020/12/21 09:31:13;;;;;;;5.80;3.73;;;8.50;99.90;;;;;;5085798;28;20466;-73
2020/12/21 09:33:46;;;;;;;10.60;5.17;;;8.30;99.90;;;;;;5088898;28;20555;-71
2020/12/21 09:36:14;;;;;;;7.23;4.70;;;8.40;1.00;;;;;;5087572;28;20475;-72
2020/12/21 09:38:43;;;;;;;4.47;3.47;;;8.30;99.90;;;;;;5087273;28;20489;-71
2020/12/21 09:44:07;;;;;;;4.77;3.73;;;8.50;99.90;;;;;;5342403;23;21103;-71
2020/12/21 09:46:35;;;;;;;4.83;3.93;;;8.40;99.90;;;;;;4971561;28;20543;-71
2020/12/21 09:52:11;;;;;;;2.77;2.57;;;8.50;1.00;;;;;;4888533;29;20471;-75
2020/12/21 09:54:38;;;;;;;2.83;2.40;;;8.50;1.00;;;;;;4893100;29;20847;-71
2020/12/21 09:57:05;;;;;;;3.40;2.47;;;8.50;1.00;;;;;;4892796;29;20487;-73
2020/12/21 09:59:33;;;;;;;2.80;2.13;;;8.50;99.90;;;;;;4885328;29;20580;-71
2020/12/21 10:02:00;;;;;;;4.23;2.77;;;8.50;38.70;;;;;;4868160;29;20623;-72
2020/12/21 10:04:27;;;;;;;2.92;2.60;;;8.40;99.90;;;;;;4871216;29;21211;-72
2020/12/21 10:06:54;;;;;;;2.80;2.20;;;8.30;99.90;;;;;;4870088;29;20276;-71
2020/12/21 10:09:30;;;;;;;2.20;1.83;;;8.30;99.90;;;;;;4872908;29;20502;-74
2020/12/21 10:11:57;;;;;;;2.13;2.00;;;8.30;1.00;;;;;;4876615;29;20481;-74
2020/12/21 10:14:24;;;;;;;2.37;1.60;;;8.40;1.00;;;;;;4873943;29;20464;-73
2020/12/21 10:16:55;;;;;;;3.53;1.97;;;8.40;99.90;;;;;;4874134;29;20548;-73
2020/12/21 10:19:23;;;;;;;2.20;2.00;;;8.30;99.90;;;;;;4872310;29;21184;-77
2020/12/21 10:21:50;;;;;;;2.27;2.07;;;8.30;1.00;;;;;;4872626;29;20487;-73
2020/12/21 10:24:17;;;;;;;3.23;1.93;;;8.10;99.90;;;;;;4873567;29;20487;-74
2020/12/21 10:26:44;;;;;;;2.97;1.90;;;8.10;1.00;;;;;;4874716;29;20489;-72
2020/12/21 10:29:11;;;;;;;3.80;2.00;;;8.10;99.90;;;;;;4890974;29;20587;-73
2020/12/21 10:31:39;;;;;;;2.63;1.80;;;8.30;99.90;;;;;;4872413;29;20482;-71
2020/12/21 10:34:06;;;;;;;3.50;2.73;;;8.40;1.00;;;;;;4870991;29;20477;-74
2020/12/21 10:36:34;;;;;;;3.00;2.07;;;8.50;1.00;;;;;;4873109;29;20906;-74
2020/12/21 10:39:01;;;;;;;2.90;2.20;;;8.30;99.90;;;;;;4873960;29;20499;-73
2020/12/21 10:41:33;;;;;;;2.40;2.20;;;8.10;99.90;;;;;;4875506;29;20582;-73
2020/12/21 10:44:00;;;;;;;5.10;2.00;;;8.30;99.90;;;;;;4883913;29;20211;-72
2020/12/21 10:46:27;;;;;;;2.00;1.80;;;8.30;99.90;;;;;;4885583;29;21136;-74
2020/12/21 10:48:54;;;;;;;5.13;1.73;;;8.10;1.00;;;;;;4877405;29;20478;-73
2020/12/21 10:51:27;;;;;;;2.10;1.90;;;8.10;1.00;;;;;;4876380;29;20589;-73
2020/12/21 10:53:54;;;;;;;2.10;1.77;;;8.10;99.90;;;;;;4878074;29;20929;-73
2020/12/21 10:56:21;;;;;;;2.03;1.87;;;8.20;99.90;;;;;;4879490;29;20463;-73
2020/12/21 10:58:48;;;;;;;5.20;1.80;;;8.10;99.90;;;;;;4875115;29;21055;-73
2020/12/21 11:01:16;;;;;;;4.43;1.87;;;8.20;99.90;;;;;;4873383;29;20503;-74
2020/12/21 11:03:44;;;;;;;3.47;1.93;;;8.50;1.00;;;;;;4874340;29;20470;-73
2020/12/21 11:06:11;;;;;;;2.10;1.90;;;8.40;41.50;;;;;;4864471;29;20475;-75
2020/12/21 11:08:39;;;;;;;3.60;2.30;;;8.40;99.90;;;;;;4881345;29;20474;-73
2020/12/21 11:11:06;;;;;;;3.83;2.03;;;8.40;1.00;;;;;;4873662;29;20500;-73
2020/12/21 11:13:35;;;;;;;3.00;2.27;;;8.30;99.90;;;;;;4875736;29;20469;-73
2020/12/21 11:16:04;;;;;;;3.10;2.17;;;8.40;99.90;;;;;;4885886;29;20482;-73
2020/12/21 11:18:31;;;;;;;3.30;2.07;;;8.70;99.90;;;;;;4882951;29;20538;-74
2020/12/21 11:20:58;;;;;;;3.27;2.20;;;8.60;99.90;;;;;;4886808;29;20534;-74
2020/12/21 11:23:25;;;;;;;4.33;2.33;;;8.70;1.00;;;;;;4881264;29;20960;-73
2020/12/21 11:25:53;;;;;;;2.43;2.00;;;8.60;99.90;;;;;;4874597;29;20490;-73
2020/12/21 11:28:20;;;;;;;3.08;2.25;;;8.60;1.00;;;;;;4887860;29;20485;-74
2020/12/21 11:30:48;;;;;;;3.33;2.53;;;8.60;46.00;;;;;;4874369;29;20250;-74
2020/12/21 11:33:15;;;;;;;2.23;2.03;;;8.70;1.00;;;;;;4874990;29;21028;-73
2020/12/21 11:35:42;;;;;;;2.60;2.40;;;8.70;99.90;;;;;;4874906;29;20483;-72
2020/12/21 11:38:10;;;;;;;8.33;2.03;;;8.60;99.90;;;;;;4874368;29;20485;-73
2020/12/21 11:40:37;;;;;;;2.17;1.87;;;8.50;99.90;;;;;;4874545;29;20506;-74
2020/12/21 11:43:06;;;;;;;4.70;2.03;;;8.50;12.40;;;;;;4873252;29;20482;-75
2020/12/21 11:45:33;;;;;;;5.80;2.07;;;8.50;99.90;;;;;;4874742;29;20831;-73
2020/12/21 11:48:00;;;;;;;3.10;1.87;;;8.50;99.90;;;;;;4874513;29;20464;-73
2020/12/21 11:50:27;;;;;;;5.43;3.97;;;8.50;99.90;;;;;;4870251;29;20494;-73
2020/12/21 11:52:55;;;;;;;2.43;2.23;;;8.50;99.90;;;;;;4873466;29;21040;-74
2020/12/21 11:55:22;;;;;;;2.90;2.20;;;8.50;99.90;;;;;;4869887;29;20553;-74
2020/12/21 11:57:49;;;;;;;3.20;2.60;;;8.60;99.90;;;;;;4876824;29;20968;-72
2020/12/21 12:00:17;;;;;;;2.93;2.73;;;8.60;99.90;;;;;;4874868;29;20528;-73
2020/12/21 12:02:44;;;;;;;2.93;2.60;;;8.60;99.90;;;;;;4873228;29;20479;-74
2020/12/21 12:05:12;;;;;;;3.30;2.67;;;8.70;99.90;;;;;;4875106;29;20472;-74
2020/12/21 12:07:39;;;;;;;2.50;2.30;;;8.60;99.90;;;;;;4873566;29;20483;-73
2020/12/21 12:10:07;;;;;;;2.67;2.47;;;8.70;99.90;;;;;;4875978;29;20485;-73
2020/12/21 12:12:35;;;;;;;2.23;2.03;;;8.70;1.00;;;;;;4874312;29;20984;-73
2020/12/21 12:15:02;;;;;;;3.83;3.53;;;8.60;1.00;;;;;;4876109;29;20482;-76
2020/12/21 12:17:30;;;;;;;3.83;2.43;;;8.60;1.00;;;;;;4875659;29;20613;-73
2020/12/21 12:19:57;;;;;;;3.20;2.50;;;8.40;1.00;;;;;;4872841;29;20527;-73
2020/12/21 12:22:24;;;;;;;4.17;3.00;;;8.40;1.00;;;;;;4871726;29;20527;-73
2020/12/21 12:24:52;;;;;;;4.73;2.80;;;8.30;1.00;;;;;;4872986;29;20481;-73
2020/12/21 12:27:19;;;;;;;3.43;2.90;;;8.20;1.00;;;;;;4874958;29;20483;-73
2020/12/21 12:29:46;;;;;;;2.93;2.67;;;8.20;1.00;;;;;;4876915;29;20505;-73
2020/12/21 12:32:13;;;;;;;2.80;2.60;;;8.20;1.00;;;;;;4880544;29;20473;-72
2020/12/21 12:34:41;;;;;;;3.07;2.50;;;8.40;1.00;;;;;;4879083;29;20484;-74
2020/12/21 12:37:08;;;;;;;3.77;3.20;;;8.50;1.00;;;;;;4877397;29;20484;-73
2020/12/21 12:39:35;;;;;;;2.50;2.00;;;8.50;1.00;;;;;;4878310;29;20482;-74
2020/12/21 12:42:03;;;;;;;2.70;2.23;;;8.70;1.00;;;;;;4879068;29;20475;-72
2020/12/21 12:44:30;;;;;;;2.00;1.70;;;8.80;1.00;;;;;;4875811;29;20477;-73
2020/12/21 12:46:57;;;;;;;3.90;2.73;;;8.80;99.90;;;;;;4876678;29;20485;-75
2020/12/21 12:49:24;;;;;;;2.30;2.10;;;8.80;1.00;;;;;;4876895;29;21013;-72
2020/12/21 12:51:55;;;;;;;2.33;1.90;;;8.80;1.00;;;;;;4879775;29;20560;-74
2020/12/21 12:54:22;;;;;;;3.10;2.50;;;8.80;1.00;;;;;;4876753;29;20477;-75
2020/12/21 12:56:49;;;;;;;3.03;2.77;;;9.00;99.90;;;;;;4872546;29;20466;-74
2020/12/21 12:59:16;;;;;;;2.87;2.50;;;9.00;99.90;;;;;;4877217;29;20491;-74
2020/12/21 13:01:43;;;;;;;2.23;2.03;;;9.10;99.90;;;;;;4876403;29;20478;-73
2020/12/21 13:04:10;;;;;;;2.63;1.90;;;9.30;99.90;;;;;;4877345;29;20506;-75
2020/12/21 13:06:37;;;;;;;2.83;2.10;;;9.50;1.00;;;;;;4877534;29;20484;-74
2020/12/21 13:09:06;;;;;;;2.47;2.20;;;9.60;9.80;;;;;;4873857;29;20559;-76
2020/12/21 13:11:33;;;;;;;2.30;2.00;;;9.70;99.90;;;;;;4876465;29;20565;-74
2020/12/21 13:14:01;;;;;;;2.40;2.20;;;9.60;1.00;;;;;;4878361;29;20567;-73
2020/12/21 13:16:28;;;;;;;2.37;2.00;;;9.70;99.90;;;;;;4877771;29;20512;-74
2020/12/21 13:18:55;;;;;;;2.20;1.97;;;9.70;45.60;;;;;;4883945;29;20502;-78